Time;durP1;ratioP1;P1;durP2;ratioP2;P2;SDS_P1;SDS_P2;PMS_P1;PMS_P2;Temp;Humidity;BMP_temperature;BMP_pressure;BME280_temperature;BME280_humidity;BME280_pressure;Samples;Min_cycle;Max_cycle;Signal;HPM_P1;HPM_P2
2023/03/10 00:02:09;;;;;;;;;;;;;;;;;;5053455;28;19913;-74
2023/03/10 00:04:35;;;;;;;;;;;;;;;;;;5054791;28;19913;-75
2023/03/10 00:07:01;;;;;;;;;;;;;;;;;;5054726;28;20357;-73
2023/03/10 00:09:27;;;;;;;;;;;;;;;;;;5054761;28;19916;-73
2023/03/10 00:11:53;;;;;;;;;;;;;;;;;;5053384;28;19919;-74
2023/03/10 00:14:19;;;;;;;;;;;;;;;;;;5054857;28;19916;-75
2023/03/10 00:16:45;;;;;;;;;;;;;;;;;;5053320;28;19931;-75
2023/03/10 00:19:10;;;;;;;;;;;;;;;;;;5054585;28;20321;-76
2023/03/10 00:21:36;;;;;;;;;;;;;;;;;;5053130;28;20376;-75
2023/03/10 00:24:02;;;;;;;;;;;;;;;;;;5054428;28;19920;-75
2023/03/10 00:26:28;;;;;;;;;;;;;;;;;;5054473;28;19908;-74
2023/03/10 00:28:54;;;;;;;;;;;;;;;;;;5053065;28;19962;-75
2023/03/10 00:31:20;;;;;;;;;;;;;;;;;;5054621;28;19913;-73
2023/03/10 00:33:46;;;;;;;;;;;;;;;;;;5054297;28;19915;-74
2023/03/10 00:36:12;;;;;;;;;;;;;;;;;;5054232;28;19920;-74
2023/03/10 00:38:38;;;;;;;;;;;;;;;;;;5053961;28;19947;-73
2023/03/10 00:41:04;;;;;;;;;;;;;;;;;;5054127;28;19909;-73
2023/03/10 00:43:30;;;;;;;;;;;;;;;;;;5052746;28;19920;-73
2023/03/10 00:45:56;;;;;;;;;;;;;;;;;;5054148;28;19909;-73
2023/03/10 00:48:22;;;;;;;;;;;;;;;;;;5054089;28;20327;-73
2023/03/10 00:50:48;;;;;;;;;;;;;;;;;;5054394;28;19908;-75
2023/03/10 00:53:14;;;;;;;;;;;;;;;;;;5052676;28;20343;-74
2023/03/10 00:55:40;;;;;;;;;;;;;;;;;;5052588;28;19959;-74
2023/03/10 00:58:06;;;;;;;;;;;;;;;;;;5053796;28;19909;-74
2023/03/10 01:00:31;;;;;;;;;;;;;;;;;;5052565;28;20280;-73
2023/03/10 01:02:57;;;;;;;;;;;;;;;;;;5052445;28;19912;-74
2023/03/10 01:05:23;;;;;;;;;;;;;;;;;;5053741;28;19932;-74
2023/03/10 01:07:49;;;;;;;;;;;;;;;;;;5053784;28;19958;-72
2023/03/10 01:10:15;;;;;;;;;;;;;;;;;;5053717;28;19971;-74
2023/03/10 01:12:41;;;;;;;;;;;;;;;;;;5053618;28;20289;-74
2023/03/10 01:15:07;;;;;;;;;;;;;;;;;;5053814;28;19931;-72
2023/03/10 01:17:33;;;;;;;;;;;;;;;;;;5053631;28;20292;-73
2023/03/10 01:20:00;;;;;;;;;;;;;;;;;;5053776;28;19915;-74
2023/03/10 01:22:26;;;;;;;;;;;;;;;;;;5053513;28;19913;-73
2023/03/10 01:24:52;;;;;;;;;;;;;;;;;;5053913;28;20350;-73
2023/03/10 01:27:17;;;;;;;;;;;;;;;;;;5053523;28;19908;-72
2023/03/10 01:29:43;;;;;;;;;;;;;;;;;;5052216;28;20007;-73
2023/03/10 01:32:09;;;;;;;;;;;;;;;;;;5053620;28;19952;-74
2023/03/10 01:34:35;;;;;;;;;;;;;;;;;;5053481;28;19913;-73
2023/03/10 01:37:01;;;;;;;;;;;;;;;;;;5052143;28;19947;-73
2023/03/10 01:39:27;;;;;;;;;;;;;;;;;;5056826;28;19920;-73
2023/03/10 01:41:53;;;;;;;;;;;;;;;;;;5057374;28;19962;-73
2023/03/10 01:44:19;;;;;;;;;;;;;;;;;;5057574;28;19963;-73
2023/03/10 01:46:45;;;;;;;;;;;;;;;;;;5057550;28;20258;-74
2023/03/10 01:49:11;;;;;;;;;;;;;;;;;;5057366;28;20262;-73
2023/03/10 01:51:37;;;;;;;;;;;;;;;;;;5056009;28;19966;-73
2023/03/10 01:54:03;;;;;;;;;;;;;;;;;;5055996;28;19966;-74
2023/03/10 01:56:28;;;;;;;;;;;;;;;;;;5057260;28;20270;-74
2023/03/10 01:58:54;;;;;;;;;;;;;;;;;;5055919;28;20003;-72
2023/03/10 02:01:20;;;;;;;;;;;;;;;;;;5057168;28;19913;-75
2023/03/10 02:03:46;;;;;;;;;;;;;;;;;;5057029;28;20411;-75
2023/03/10 02:06:12;;;;;;;;;;;;;;;;;;5057396;28;20474;-74
2023/03/10 02:08:38;;;;;;;;;;;;;;;;;;5056993;28;19936;-73
2023/03/10 02:11:04;;;;;;;;;;;;;;;;;;5056972;28;19948;-73
2023/03/10 02:13:30;;;;;;;;;;;;;;;;;;5056928;28;20315;-74
2023/03/10 02:15:56;;;;;;;;;;;;;;;;;;5056880;28;20411;-73
2023/03/10 02:18:22;;;;;;;;;;;;;;;;;;5057110;28;19909;-74
2023/03/10 02:20:48;;;;;;;;;;;;;;;;;;5056772;28;19916;-74
2023/03/10 02:23:14;;;;;;;;;;;;;;;;;;5056680;28;19913;-74
2023/03/10 02:25:40;;;;;;;;;;;;;;;;;;5056662;28;19908;-73
2023/03/10 02:28:06;;;;;;;;;;;;;;;;;;5056800;28;19952;-73
2023/03/10 02:30:32;;;;;;;;;;;;;;;;;;5056564;28;19916;-75
2023/03/10 02:32:57;;;;;;;;;;;;;;;;;;5056512;28;19909;-73
2023/03/10 02:35:23;;;;;;;;;;;;;;;;;;5056699;28;19908;-74
2023/03/10 02:37:49;;;;;;;;;;;;;;;;;;5056420;28;20284;-73
2023/03/10 02:40:15;;;;;;;;;;;;;;;;;;5054730;28;20451;-73
2023/03/10 02:42:41;;;;;;;;;;;;;;;;;;5056325;28;19939;-72
2023/03/10 02:45:07;;;;;;;;;;;;;;;;;;5056669;28;19955;-73
2023/03/10 02:47:33;;;;;;;;;;;;;;;;;;5056293;28;19912;-74
2023/03/10 02:49:59;;;;;;;;;;;;;;;;;;5056095;28;19913;-72
2023/03/10 02:52:25;;;;;;;;;;;;;;;;;;5054895;28;19909;-73
2023/03/10 02:54:51;;;;;;;;;;;;;;;;;;5056415;28;19915;-72
2023/03/10 02:57:17;;;;;;;;;;;;;;;;;;5055975;28;19915;-73
2023/03/10 02:59:43;;;;;;;;;;;;;;;;;;5056215;28;19913;-74
2023/03/10 03:02:09;;;;;;;;;;;;;;;;;;5055915;28;20007;-74
2023/03/10 03:04:35;;;;;;;;;;;;;;;;;;5055916;28;19960;-73
2023/03/10 03:07:00;;;;;;;;;;;;;;;;;;5055892;28;19916;-75
2023/03/10 03:09:26;;;;;;;;;;;;;;;;;;5056201;28;19959;-73
2023/03/10 03:11:52;;;;;;;;;;;;;;;;;;5056026;28;20074;-74
2023/03/10 03:14:18;;;;;;;;;;;;;;;;;;5055768;28;19916;-74
2023/03/10 03:16:44;;;;;;;;;;;;;;;;;;5054455;28;19909;-74
2023/03/10 03:19:10;;;;;;;;;;;;;;;;;;5054433;28;19916;-73
2023/03/10 03:21:36;;;;;;;;;;;;;;;;;;5054271;28;19931;-73
2023/03/10 03:24:02;;;;;;;;;;;;;;;;;;5055674;28;19913;-74
2023/03/10 03:26:28;;;;;;;;;;;;;;;;;;5055518;28;19908;-73
2023/03/10 03:28:55;;;;;;;;;;;;;;;;;;5054227;28;20439;-75
2023/03/10 03:31:21;;;;;;;;;;;;;;;;;;5054155;28;19967;-74
2023/03/10 03:33:47;;;;;;;;;;;;;;;;;;5055498;28;19912;-73
2023/03/10 03:36:13;;;;;;;;;;;;;;;;;;5055338;28;19974;-73
2023/03/10 03:38:38;;;;;;;;;;;;;;;;;;5053772;28;20381;-73
2023/03/10 03:41:04;;;;;;;;;;;;;;;;;;5055615;28;19998;-74
2023/03/10 03:43:30;;;;;;;;;;;;;;;;;;5055149;28;20301;-73
2023/03/10 03:45:56;;;;;;;;;;;;;;;;;;5055293;28;20479;-73
2023/03/10 03:48:22;;;;;;;;;;;;;;;;;;5055118;28;20007;-74
2023/03/10 03:50:48;;;;;;;;;;;;;;;;;;5055055;28;19952;-74
2023/03/10 03:53:14;;;;;;;;;;;;;;;;;;5055266;28;19908;-74
2023/03/10 03:55:40;;;;;;;;;;;;;;;;;;5055110;28;19912;-73
2023/03/10 03:58:06;;;;;;;;;;;;;;;;;;5054841;28;19959;-73
2023/03/10 04:00:34;;;;;;;;;;;;;;;;;;5054441;28;19916;-72
2023/03/10 04:03:00;;;;;;;;;;;;;;;;;;5054779;28;20381;-74
2023/03/10 04:05:26;;;;;;;;;;;;;;;;;;5054905;28;19916;-74
2023/03/10 04:07:52;;;;;;;;;;;;;;;;;;5054755;28;19908;-74
2023/03/10 04:10:18;;;;;;;;;;;;;;;;;;5054913;28;19916;-73
2023/03/10 04:12:43;;;;;;;;;;;;;;;;;;5054791;28;19909;-73
2023/03/10 04:15:10;;;;;;;;;;;;;;;;;;5054619;28;19908;-73
2023/03/10 04:17:36;;;;;;;;;;;;;;;;;;5054553;28;19913;-74
2023/03/10 04:20:02;;;;;;;;;;;;;;;;;;5054708;28;19916;-73
2023/03/10 04:22:28;;;;;;;;;;;;;;;;;;5054376;28;20289;-73
2023/03/10 04:24:54;;;;;;;;;;;;;;;;;;5054566;28;19909;-74
2023/03/10 04:27:20;;;;;;;;;;;;;;;;;;5053063;28;19916;-73
2023/03/10 04:29:46;;;;;;;;;;;;;;;;;;5054132;28;19915;-75
2023/03/10 04:32:12;;;;;;;;;;;;;;;;;;5053065;28;19958;-74
2023/03/10 04:34:38;;;;;;;;;;;;;;;;;;5054366;28;19999;-73
2023/03/10 04:37:04;;;;;;;;;;;;;;;;;;5054275;28;20408;-74
2023/03/10 04:39:30;;;;;;;;;;;;;;;;;;5053761;28;20384;-73
2023/03/10 04:41:56;;;;;;;;;;;;;;;;;;5054440;28;19916;-74
2023/03/10 04:44:21;;;;;;;;;;;;;;;;;;5054382;28;19909;-74
2023/03/10 04:46:47;;;;;;;;;;;;;;;;;;5052755;28;20300;-74
2023/03/10 04:49:14;;;;;;;;;;;;;;;;;;5054132;28;19913;-74
2023/03/10 04:51:40;;;;;;;;;;;;;;;;;;5054059;28;19909;-73
2023/03/10 04:54:06;;;;;;;;;;;;;;;;;;5053917;28;19916;-74
2023/03/10 04:56:32;;;;;;;;;;;;;;;;;;5053949;28;19909;-74
2023/03/10 04:58:57;;;;;;;;;;;;;;;;;;5052555;28;20388;-74
2023/03/10 05:01:23;;;;;;;;;;;;;;;;;;5053940;28;19913;-73
2023/03/10 05:03:49;;;;;;;;;;;;;;;;;;5053746;28;19916;-74
2023/03/10 05:06:15;;;;;;;;;;;;;;;;;;5052526;28;20410;-73
2023/03/10 05:08:41;;;;;;;;;;;;;;;;;;5053745;28;19952;-75
2023/03/10 05:11:07;;;;;;;;;;;;;;;;;;5053656;28;20308;-73
2023/03/10 05:13:33;;;;;;;;;;;;;;;;;;5052932;28;20336;-73
2023/03/10 05:15:59;;;;;;;;;;;;;;;;;;5053640;28;19948;-75
2023/03/10 05:18:25;;;;;;;;;;;;;;;;;;5053659;28;19909;-74
2023/03/10 05:20:51;;;;;;;;;;;;;;;;;;5053576;28;19932;-74
2023/03/10 05:23:17;;;;;;;;;;;;;;;;;;5052178;28;20373;-74
2023/03/10 05:25:43;;;;;;;;;;;;;;;;;;5053810;28;19927;-75
2023/03/10 05:28:09;;;;;;;;;;;;;;;;;;5054028;28;19908;-75
2023/03/10 05:30:34;;;;;;;;;;;;;;;;;;5053448;28;19908;-74
2023/03/10 05:33:00;;;;;;;;;;;;;;;;;;5053482;28;19993;-73
2023/03/10 05:35:26;;;;;;;;;;;;;;;;;;5053661;28;19909;-73
2023/03/10 05:37:52;;;;;;;;;;;;;;;;;;5052195;28;19908;-73
2023/03/10 05:40:18;;;;;;;;;;;;;;;;;;5053117;28;19927;-75
2023/03/10 05:42:44;;;;;;;;;;;;;;;;;;5053270;28;19914;-75
2023/03/10 05:45:10;;;;;;;;;;;;;;;;;;5053313;28;20429;-73
2023/03/10 05:47:36;;;;;;;;;;;;;;;;;;5053323;28;19952;-74
2023/03/10 05:50:02;;;;;;;;;;;;;;;;;;5053358;28;19909;-74
2023/03/10 05:52:28;;;;;;;;;;;;;;;;;;5053544;28;19916;-74
2023/03/10 05:54:54;;;;;;;;;;;;;;;;;;5053302;28;19944;-74
2023/03/10 05:57:20;;;;;;;;;;;;;;;;;;5053211;28;19909;-75
2023/03/10 05:59:46;;;;;;;;;;;;;;;;;;5053264;28;19974;-76
2023/03/10 06:02:11;;;;;;;;;;;;;;;;;;5053171;28;20266;-75
2023/03/10 06:04:37;;;;;;;;;;;;;;;;;;5053470;28;19909;-74
2023/03/10 06:07:03;;;;;;;;;;;;;;;;;;5053162;28;20383;-74
2023/03/10 06:09:29;;;;;;;;;;;;;;;;;;5053152;28;19909;-74
2023/03/10 06:11:55;;;;;;;;;;;;;;;;;;5051825;28;19916;-74
2023/03/10 06:14:21;;;;;;;;;;;;;;;;;;5051843;28;19909;-74
2023/03/10 06:16:50;;;;;;;;;;;;;;;;;;5053109;28;20003;-74
2023/03/10 06:19:16;;;;;;;;;;;;;;;;;;5053085;28;20266;-74
2023/03/10 06:21:42;;;;;;;;;;;;;;;;;;5052952;28;19955;-74
2023/03/10 06:24:08;;;;;;;;;;;;;;;;;;5054306;28;19909;-74
2023/03/10 06:26:34;;;;;;;;;;;;;;;;;;5056978;28;19913;-73
2023/03/10 06:28:59;;;;;;;;;;;;;;;;;;5056733;28;20007;-74
2023/03/10 06:31:25;;;;;;;;;;;;;;;;;;5056644;28;20439;-73
2023/03/10 06:33:51;;;;;;;;;;;;;;;;;;5056608;28;19912;-73
2023/03/10 06:36:17;;;;;;;;;;;;;;;;;;5056524;28;20483;-74
2023/03/10 06:38:43;;;;;;;;;;;;;;;;;;5054974;28;19920;-74
2023/03/10 06:41:09;;;;;;;;;;;;;;;;;;5056383;28;19915;-74
2023/03/10 06:43:35;;;;;;;;;;;;;;;;;;5056330;28;20013;-73
2023/03/10 06:46:01;;;;;;;;;;;;;;;;;;5056651;28;19909;-75
2023/03/10 06:48:27;;;;;;;;;;;;;;;;;;5056342;28;20361;-74
2023/03/10 06:50:53;;;;;;;;;;;;;;;;;;5056148;28;19913;-74
2023/03/10 06:53:19;;;;;;;;;;;;;;;;;;5056053;28;20377;-74
2023/03/10 06:55:45;;;;;;;;;;;;;;;;;;5055977;28;20285;-73
2023/03/10 06:58:11;;;;;;;;;;;;;;;;;;5056013;28;20365;-75
2023/03/10 07:00:38;;;;;;;;;;;;;;;;;;5056054;28;19954;-74
2023/03/10 07:03:04;;;;;;;;;;;;;;;;;;5056042;28;20361;-74
2023/03/10 07:05:30;;;;;;;;;;;;;;;;;;5055933;28;19909;-74
2023/03/10 07:07:56;;;;;;;;;;;;;;;;;;5055900;28;19940;-73
2023/03/10 07:10:22;;;;;;;;;;;;;;;;;;5054566;28;19909;-74
2023/03/10 07:12:53;;;;;;;;;;;;;;;;;;5054537;28;19908;-73
2023/03/10 07:15:19;;;;;;;;;;;;;;;;;;5054212;28;19916;-74
2023/03/10 07:17:45;;;;;;;;;;;;;;;;;;5054396;28;19909;-74
2023/03/10 07:20:11;;;;;;;;;;;;;;;;;;5056029;28;19915;-73
2023/03/10 07:22:37;;;;;;;;;;;;;;;;;;5055534;28;19999;-74
2023/03/10 07:25:03;;;;;;;;;;;;;;;;;;5055670;28;19944;-75
2023/03/10 07:27:29;;;;;;;;;;;;;;;;;;5055485;28;19916;-74
2023/03/10 07:29:55;;;;;;;;;;;;;;;;;;5054196;28;19909;-74
2023/03/10 07:32:21;;;;;;;;;;;;;;;;;;5055470;28;19915;-74
2023/03/10 07:34:47;;;;;;;;;;;;;;;;;;5055045;28;19941;-73
2023/03/10 07:37:13;;;;;;;;;;;;;;;;;;5054769;28;20309;-73
2023/03/10 07:39:39;;;;;;;;;;;;;;;;;;5055197;28;19921;-72
2023/03/10 07:42:05;;;;;;;;;;;;;;;;;;5055179;28;20368;-74
2023/03/10 07:44:31;;;;;;;;;;;;;;;;;;5055288;28;19909;-74
2023/03/10 07:46:57;;;;;;;;;;;;;;;;;;5055313;28;19909;-74
2023/03/10 07:49:23;;;;;;;;;;;;;;;;;;5055129;28;20058;-74
2023/03/10 07:51:49;;;;;;;;;;;;;;;;;;5055068;28;19920;-73
2023/03/10 07:54:15;;;;;;;;;;;;;;;;;;5055460;28;19915;-73
2023/03/10 07:56:40;;;;;;;;;;;;;;;;;;5055235;28;19919;-74
2023/03/10 07:59:06;;;;;;;;;;;;;;;;;;5054991;28;19916;-74
2023/03/10 08:01:32;;;;;;;;;;;;;;;;;;5054945;28;19908;-74
2023/03/10 08:03:58;;;;;;;;;;;;;;;;;;5054696;28;19919;-74
2023/03/10 08:06:24;;;;;;;;;;;;;;;;;;5054738;28;19978;-74
2023/03/10 08:08:50;;;;;;;;;;;;;;;;;;5054808;28;19908;-75
2023/03/10 08:11:16;;;;;;;;;;;;;;;;;;5054693;28;19962;-74
2023/03/10 08:13:44;;;;;;;;;;;;;;;;;;5054729;28;19944;-74
2023/03/10 08:16:10;;;;;;;;;;;;;;;;;;5054692;28;20373;-73
2023/03/10 08:18:36;;;;;;;;;;;;;;;;;;5054313;28;19909;-74
2023/03/10 08:21:02;;;;;;;;;;;;;;;;;;5054575;28;19939;-75
2023/03/10 08:23:28;;;;;;;;;;;;;;;;;;5054811;28;20428;-74
2023/03/10 08:25:54;;;;;;;;;;;;;;;;;;5054374;28;19909;-74
2023/03/10 08:28:20;;;;;;;;;;;;;;;;;;5053059;28;19909;-74
2023/03/10 08:30:46;;;;;;;;;;;;;;;;;;5054343;28;19961;-75
2023/03/10 08:33:12;;;;;;;;;;;;;;;;;;5054245;28;20003;-74
2023/03/10 08:35:38;;;;;;;;;;;;;;;;;;5052945;28;19960;-73
2023/03/10 08:38:04;;;;;;;;;;;;;;;;;;5054192;28;19971;-74
2023/03/10 08:40:30;;;;;;;;;;;;;;;;;;5053710;28;19928;-75
2023/03/10 08:42:56;;;;;;;;;;;;;;;;;;5054048;28;19913;-75
2023/03/10 08:45:22;;;;;;;;;;;;;;;;;;5054577;28;19909;-74
2023/03/10 08:47:47;;;;;;;;;;;;;;;;;;5053826;28;19916;-74
2023/03/10 08:50:13;;;;;;;;;;;;;;;;;;5054019;28;19927;-75
2023/03/10 08:52:39;;;;;;;;;;;;;;;;;;5053940;28;19908;-73
2023/03/10 08:55:05;;;;;;;;;;;;;;;;;;5053907;28;19908;-72
2023/03/10 08:57:31;;;;;;;;;;;;;;;;;;5053992;28;19963;-73
2023/03/10 08:59:57;;;;;;;;;;;;;;;;;;5053970;28;19908;-74
2023/03/10 09:02:24;;;;;;;;;;;;;;;;;;5054000;28;20028;-74
2023/03/10 09:04:50;;;;;;;;;;;;;;;;;;5052481;28;19999;-74
2023/03/10 09:07:15;;;;;;;;;;;;;;;;;;5053745;28;19940;-76
2023/03/10 09:09:41;;;;;;;;;;;;;;;;;;5052479;28;19976;-73
2023/03/10 09:12:08;;;;;;;;;;;;;;;;;;5053832;28;19913;-73
2023/03/10 09:14:34;;;;;;;;;;;;;;;;;;5053656;28;20380;-75
2023/03/10 09:17:00;;;;;;;;;;;;;;;;;;5053667;28;19909;-75
2023/03/10 09:19:25;;;;;;;;;;;;;;;;;;5053527;28;19909;-74
2023/03/10 09:21:51;;;;;;;;;;;;;;;;;;5053564;28;20003;-74
2023/03/10 09:24:18;;;;;;;;;;;;;;;;;;5052320;28;19948;-75
2023/03/10 09:26:44;;;;;;;;;;;;;;;;;;5053540;28;19909;-75
2023/03/10 09:29:10;;;;;;;;;;;;;;;;;;5053810;28;19915;-75
2023/03/10 09:31:38;;;;;;;;;;;;;;;;;;5053481;28;20018;-74
2023/03/10 09:34:04;;;;;;;;;;;;;;;;;;5053503;28;19916;-75
2023/03/10 09:36:30;;;;;;;;;;;;;;;;;;5053505;28;19974;-75
2023/03/10 09:38:56;;;;;;;;;;;;;;;;;;5053369;28;19921;-76
2023/03/10 09:41:22;;;;;;;;;;;;;;;;;;5053436;28;20284;-74
2023/03/10 09:43:49;;;;;;;;;;;;;;;;;;5053358;28;19920;-75
2023/03/10 09:46:15;;;;;;;;;;;;;;;;;;5052114;28;20285;-75
2023/03/10 09:48:41;;;;;;;;;;;;;;;;;;5053352;28;19909;-75
2023/03/10 09:51:07;;;;;;;;;;;;;;;;;;5053246;28;19962;-75
2023/03/10 09:53:33;;;;;;;;;;;;;;;;;;5053279;28;19913;-75
2023/03/10 09:55:59;;;;;;;;;;;;;;;;;;5053456;28;19979;-74
2023/03/10 09:58:25;;;;;;;;;;;;;;;;;;5053509;28;19909;-74
2023/03/10 10:00:51;;;;;;;;;;;;;;;;;;5055846;28;19948;-76
2023/03/10 10:03:17;;;;;;;;;;;;;;;;;;5055821;28;20293;-76
2023/03/10 10:05:43;;;;;;;;;;;;;;;;;;5057025;28;20281;-75
2023/03/10 10:08:09;;;;;;;;;;;;;;;;;;5057023;28;19909;-75
2023/03/10 10:10:35;;;;;;;;;;;;;;;;;;5057029;28;19909;-75
2023/03/10 10:13:01;;;;;;;;;;;;;;;;;;5056969;28;19909;-75
2023/03/10 10:15:27;;;;;;;;;;;;;;;;;;5057115;28;19970;-74
2023/03/10 10:17:53;;;;;;;;;;;;;;;;;;5056881;28;19916;-74
2023/03/10 10:20:19;;;;;;;;;;;;;;;;;;5057360;28;19909;-75
2023/03/10 10:22:45;;;;;;;;;;;;;;;;;;5056706;28;19913;-75
2023/03/10 10:25:11;;;;;;;;;;;;;;;;;;5056748;28;20023;-76
2023/03/10 10:27:37;;;;;;;;;;;;;;;;;;5057031;28;19908;-77
2023/03/10 10:30:03;;;;;;;;;;;;;;;;;;5056659;28;20334;-75
2023/03/10 10:32:28;;;;;;;;;;;;;;;;;;5055302;28;20412;-74
2023/03/10 10:34:54;;;;;;;;;;;;;;;;;;5056592;28;19909;-75
2023/03/10 10:37:20;;;;;;;;;;;;;;;;;;5056515;28;19995;-74
2023/03/10 10:39:46;;;;;;;;;;;;;;;;;;5056433;28;19963;-75
2023/03/10 10:42:12;;;;;;;;;;;;;;;;;;5056367;28;20319;-75
2023/03/10 10:44:38;;;;;;;;;;;;;;;;;;5056382;28;20429;-75
2023/03/10 10:47:04;;;;;;;;;;;;;;;;;;5056373;28;19909;-75
2023/03/10 10:49:32;;;;;;;;;;;;;;;;;;5056433;28;20266;-74
2023/03/10 10:51:58;;;;;;;;;;;;;;;;;;5056174;28;19944;-74
2023/03/10 10:54:27;;;;;;;;;;;;;;;;;;5056217;28;20289;-75
2023/03/10 10:56:53;;;;;;;;;;;;;;;;;;5056088;28;20002;-74
2023/03/10 10:59:19;;;;;;;;;;;;;;;;;;5056296;28;19959;-74
2023/03/10 11:01:45;;;;;;;;;;;;;;;;;;5056120;28;19916;-74
2023/03/10 11:04:11;;;;;;;;;;;;;;;;;;5056118;28;19913;-74
2023/03/10 11:06:37;;;;;;;;;;;;;;;;;;5056019;28;19963;-73
2023/03/10 11:09:03;;;;;;;;;;;;;;;;;;5054664;28;19909;-75
2023/03/10 11:11:29;;;;;;;;;;;;;;;;;;5056163;28;19984;-75
2023/03/10 11:13:55;;;;;;;;;;;;;;;;;;5055850;28;20419;-75
2023/03/10 11:16:21;;;;;;;;;;;;;;;;;;5055947;28;19908;-74
2023/03/10 11:18:47;;;;;;;;;;;;;;;;;;5055777;28;19916;-75
2023/03/10 11:21:13;;;;;;;;;;;;;;;;;;5055678;28;19909;-74
2023/03/10 11:23:39;;;;;;;;;;;;;;;;;;5055599;28;19916;-74
2023/03/10 11:26:05;;;;;;;;;;;;;;;;;;5055638;28;19909;-74
2023/03/10 11:28:30;;;;;;;;;;;;;;;;;;5055574;28;19909;-76
2023/03/10 11:30:56;;;;;;;;;;;;;;;;;;5055707;28;19908;-74
2023/03/10 11:33:22;;;;;;;;;;;;;;;;;;5055513;28;20003;-75
2023/03/10 11:35:48;;;;;;;;;;;;;;;;;;5055837;28;19909;-74
2023/03/10 11:38:14;;;;;;;;;;;;;;;;;;5055444;28;19916;-75
2023/03/10 11:40:40;;;;;;;;;;;;;;;;;;5053949;28;19921;-75
2023/03/10 11:43:06;;;;;;;;;;;;;;;;;;5055232;28;19919;-74
2023/03/10 11:45:32;;;;;;;;;;;;;;;;;;5055543;28;20349;-75
2023/03/10 11:47:58;;;;;;;;;;;;;;;;;;5055229;28;19916;-74
2023/03/10 11:50:25;;;;;;;;;;;;;;;;;;5055259;28;19912;-74
2023/03/10 11:52:51;;;;;;;;;;;;;;;;;;5058869;28;20006;-74
2023/03/10 11:55:17;;;;;;;;;;;;;;;;;;5065698;28;19954;-75
2023/03/10 11:57:43;;;;;;;;;;;;;;;;;;5074284;28;19948;-74
2023/03/10 12:00:09;;;;;;;;;;;;;;;;;;5074498;28;19915;-75
2023/03/10 12:02:36;;;;;;;;;;;;;;;;;;5074160;28;19961;-74
2023/03/10 12:05:02;;;;;;;;;;;;;;;;;;5074216;28;20332;-75
2023/03/10 12:07:28;;;;;;;;;;;;;;;;;;5072897;28;19908;-74
2023/03/10 12:09:54;;;;;;;;;;;;;;;;;;5074279;28;19909;-75
2023/03/10 12:12:20;;;;;;;;;;;;;;;;;;5073272;28;19908;-74
2023/03/10 12:14:46;;;;;;;;;;;;;;;;;;5072609;28;19923;-74
2023/03/10 12:17:12;;;;;;;;;;;;;;;;;;5067769;28;20004;-75
2023/03/10 12:19:38;;;;;;;;;;;;;;;;;;5074100;28;19948;-75
2023/03/10 12:22:04;;;;;;;;;;;;;;;;;;5073382;28;19908;-73
2023/03/10 12:24:30;;;;;;;;;;;;;;;;;;5074042;28;20396;-74
2023/03/10 12:26:56;;;;;;;;;;;;;;;;;;5073807;28;20334;-74
2023/03/10 12:29:23;;;;;;;;;;;;;;;;;;5073723;28;19909;-74
2023/03/10 12:31:50;;;;;;;;;;;;;;;;;;5069801;28;19961;-74
2023/03/10 12:34:15;;;;;;;;;;;;;;;;;;5054459;28;19909;-74
2023/03/10 12:36:41;;;;;;;;;;;;;;;;;;5054223;28;19951;-75
2023/03/10 12:39:07;;;;;;;;;;;;;;;;;;5054027;28;19927;-74
2023/03/10 12:41:33;;;;;;;;;;;;;;;;;;5054180;28;20004;-74
2023/03/10 12:43:59;;;;;;;;;;;;;;;;;;5054079;28;19920;-75
2023/03/10 12:46:25;;;;;;;;;;;;;;;;;;5054257;28;19909;-74
2023/03/10 12:48:51;;;;;;;;;;;;;;;;;;5054340;28;19908;-75
2023/03/10 12:51:17;;;;;;;;;;;;;;;;;;5054390;28;19955;-74
2023/03/10 12:53:43;;;;;;;;;;;;;;;;;;5053975;28;19913;-74
2023/03/10 12:56:09;;;;;;;;;;;;;;;;;;5053858;28;19909;-73
2023/03/10 12:58:35;;;;;;;;;;;;;;;;;;5054183;28;19944;-75
2023/03/10 13:01:01;;;;;;;;;;;;;;;;;;5053831;28;19909;-74
2023/03/10 13:03:27;;;;;;;;;;;;;;;;;;5052444;28;19913;-75
2023/03/10 13:05:53;;;;;;;;;;;;;;;;;;5053955;28;19958;-75
2023/03/10 13:08:19;;;;;;;;;;;;;;;;;;5054038;28;20384;-74
2023/03/10 13:10:45;;;;;;;;;;;;;;;;;;5053920;28;19908;-74
2023/03/10 13:13:10;;;;;;;;;;;;;;;;;;5053728;28;20026;-74
2023/03/10 13:15:36;;;;;;;;;;;;;;;;;;5053722;28;19994;-74
2023/03/10 13:18:02;;;;;;;;;;;;;;;;;;5053808;28;19909;-74
2023/03/10 13:20:28;;;;;;;;;;;;;;;;;;5053745;28;19975;-74
2023/03/10 13:22:54;;;;;;;;;;;;;;;;;;5053496;28;19936;-75
2023/03/10 13:25:20;;;;;;;;;;;;;;;;;;5053562;28;20375;-74
2023/03/10 13:27:46;;;;;;;;;;;;;;;;;;5053547;28;20342;-74
2023/03/10 13:30:12;;;;;;;;;;;;;;;;;;5053739;28;20277;-74
2023/03/10 13:32:38;;;;;;;;;;;;;;;;;;5053517;28;20395;-74
2023/03/10 13:35:04;;;;;;;;;;;;;;;;;;5056650;28;20011;-74
2023/03/10 13:37:30;;;;;;;;;;;;;;;;;;5057669;28;19916;-74
2023/03/10 13:39:56;;;;;;;;;;;;;;;;;;5057455;28;19921;-74
2023/03/10 13:42:22;;;;;;;;;;;;;;;;;;5057502;28;19979;-74
2023/03/10 13:44:48;;;;;;;;;;;;;;;;;;5057658;28;20325;-75
2023/03/10 13:47:14;;;;;;;;;;;;;;;;;;5057490;28;19909;-73
2023/03/10 13:49:40;;;;;;;;;;;;;;;;;;5057407;28;19932;-74
2023/03/10 13:52:06;;;;;;;;;;;;;;;;;;5056088;28;20286;-74
2023/03/10 13:54:32;;;;;;;;;;;;;;;;;;5057313;28;19909;-74
2023/03/10 13:56:58;;;;;;;;;;;;;;;;;;5057255;28;19916;-74
2023/03/10 13:59:24;;;;;;;;;;;;;;;;;;5058201;28;19912;-74
2023/03/10 14:01:52;;;;;;;;;;;;;;;;;;5057563;28;19909;-75
2023/03/10 14:04:18;;;;;;;;;;;;;;;;;;5057098;28;19955;-74
2023/03/10 14:06:44;;;;;;;;;;;;;;;;;;5057424;28;19912;-75
2023/03/10 14:09:10;;;;;;;;;;;;;;;;;;5057073;28;20296;-74
2023/03/10 14:11:36;;;;;;;;;;;;;;;;;;5055742;28;20416;-74
2023/03/10 14:14:04;;;;;;;;;;;;;;;;;;5056981;28;19909;-74
2023/03/10 14:16:30;;;;;;;;;;;;;;;;;;5057093;28;20270;-74
2023/03/10 14:18:55;;;;;;;;;;;;;;;;;;5057094;28;19923;-73
2023/03/10 14:21:21;;;;;;;;;;;;;;;;;;5056793;28;20055;-73
2023/03/10 14:23:47;;;;;;;;;;;;;;;;;;5056717;28;19963;-74
2023/03/10 14:26:13;;;;;;;;;;;;;;;;;;5055472;28;19959;-75
2023/03/10 14:28:40;;;;;;;;;;;;;;;;;;5056843;28;19909;-73
2023/03/10 14:31:06;;;;;;;;;;;;;;;;;;5055361;28;19909;-74
2023/03/10 14:33:32;;;;;;;;;;;;;;;;;;5056608;28;19955;-74
2023/03/10 14:35:58;;;;;;;;;;;;;;;;;;5055274;28;19958;-74
2023/03/10 14:38:24;;;;;;;;;;;;;;;;;;5056339;28;19913;-74
2023/03/10 14:40:50;;;;;;;;;;;;;;;;;;5056817;28;19931;-74
2023/03/10 14:43:16;;;;;;;;;;;;;;;;;;5056368;28;20325;-74
2023/03/10 14:45:43;;;;;;;;;;;;;;;;;;5055964;28;20389;-74
2023/03/10 14:48:09;;;;;;;;;;;;;;;;;;5056354;28;19909;-74
2023/03/10 14:50:35;;;;;;;;;;;;;;;;;;5056524;28;20379;-74
2023/03/10 14:53:00;;;;;;;;;;;;;;;;;;5056266;28;19954;-73
2023/03/10 14:55:26;;;;;;;;;;;;;;;;;;5056152;28;19909;-75
2023/03/10 14:57:52;;;;;;;;;;;;;;;;;;5054758;28;20361;-74
2023/03/10 15:00:18;;;;;;;;;;;;;;;;;;5056063;28;19909;-74
2023/03/10 15:02:44;;;;;;;;;;;;;;;;;;5056109;28;19964;-73
2023/03/10 15:05:10;;;;;;;;;;;;;;;;;;5056548;28;19970;-75
2023/03/10 15:07:36;;;;;;;;;;;;;;;;;;5055942;28;19919;-74
2023/03/10 15:10:02;;;;;;;;;;;;;;;;;;5056152;28;19958;-74
2023/03/10 15:12:28;;;;;;;;;;;;;;;;;;5055925;28;19908;-74
2023/03/10 15:14:54;;;;;;;;;;;;;;;;;;5054545;28;20323;-74
2023/03/10 15:17:20;;;;;;;;;;;;;;;;;;5055804;28;19908;-73
2023/03/10 15:19:46;;;;;;;;;;;;;;;;;;5055748;28;19909;-73
2023/03/10 15:22:12;;;;;;;;;;;;;;;;;;5055804;28;20063;-73
2023/03/10 15:24:37;;;;;;;;;;;;;;;;;;5055710;28;19952;-74
2023/03/10 15:27:03;;;;;;;;;;;;;;;;;;5055894;28;19913;-74
2023/03/10 15:29:29;;;;;;;;;;;;;;;;;;5055582;28;19909;-74
2023/03/10 15:31:57;;;;;;;;;;;;;;;;;;5055497;28;20007;-73
2023/03/10 15:34:22;;;;;;;;;;;;;;;;;;5055764;28;20387;-74
2023/03/10 15:36:49;;;;;;;;;;;;;;;;;;5055468;28;19912;-74
2023/03/10 15:39:15;;;;;;;;;;;;;;;;;;5055179;28;19921;-73
2023/03/10 15:41:41;;;;;;;;;;;;;;;;;;5054071;28;19909;-74
2023/03/10 15:44:07;;;;;;;;;;;;;;;;;;5055325;28;19912;-74
2023/03/10 15:46:33;;;;;;;;;;;;;;;;;;5053965;28;19913;-73
2023/03/10 15:48:59;;;;;;;;;;;;;;;;;;5055395;28;19909;-74
2023/03/10 15:51:25;;;;;;;;;;;;;;;;;;5055138;28;19978;-74
2023/03/10 15:53:51;;;;;;;;;;;;;;;;;;5053863;28;20373;-74
2023/03/10 15:56:17;;;;;;;;;;;;;;;;;;5054179;28;19908;-74
2023/03/10 15:58:43;;;;;;;;;;;;;;;;;;5053740;28;19909;-74
2023/03/10 16:01:09;;;;;;;;;;;;;;;;;;5055329;28;19909;-74
2023/03/10 16:03:35;;;;;;;;;;;;;;;;;;5054829;28;19920;-74
2023/03/10 16:06:01;;;;;;;;;;;;;;;;;;5055015;28;19909;-75
2023/03/10 16:08:27;;;;;;;;;;;;;;;;;;5053609;28;20284;-73
2023/03/10 16:10:53;;;;;;;;;;;;;;;;;;5053481;28;19909;-74
2023/03/10 16:13:19;;;;;;;;;;;;;;;;;;5054732;28;19916;-74
2023/03/10 16:15:45;;;;;;;;;;;;;;;;;;5054966;28;19915;-74
2023/03/10 16:18:11;;;;;;;;;;;;;;;;;;5054649;28;19959;-75
2023/03/10 16:20:37;;;;;;;;;;;;;;;;;;5053265;28;19915;-74
2023/03/10 16:23:03;;;;;;;;;;;;;;;;;;5055028;28;19913;-74
2023/03/10 16:25:29;;;;;;;;;;;;;;;;;;5054477;28;19959;-73
2023/03/10 16:27:55;;;;;;;;;;;;;;;;;;5054376;28;19916;-74
2023/03/10 16:30:21;;;;;;;;;;;;;;;;;;5054390;28;20007;-74
2023/03/10 16:32:47;;;;;;;;;;;;;;;;;;5054343;28;19909;-73
2023/03/10 16:35:13;;;;;;;;;;;;;;;;;;5052315;28;19909;-74
2023/03/10 16:37:39;;;;;;;;;;;;;;;;;;5053038;28;19920;-73